Time;durP1;ratioP1;P1;durP2;ratioP2;P2;SDS_P1;SDS_P2;PMS_P1;PMS_P2;Temp;Humidity;BMP_temperature;BMP_pressure;BME280_temperature;BME280_humidity;BME280_pressure;Samples;Min_cycle;Max_cycle;Signal;HPM_P1;HPM_P2
2023/10/03 00:01:37;;;;;;;;;;;13.70;99.90;;;;;;5051041;28;20021;-73
2023/10/03 00:04:05;;;;;;;9.68;2.58;;;13.60;99.90;;;;;;5050816;28;19911;-74
2023/10/03 00:06:34;;;;;;;8.68;2.17;;;13.60;99.90;;;;;;5050600;28;20029;-74
2023/10/03 00:09:01;;;;;;;9.85;2.80;;;13.70;99.90;;;;;;5050773;28;20025;-74
2023/10/03 00:11:27;;;;;;;6.70;2.30;;;13.70;99.90;;;;;;5049135;28;20115;-74
2023/10/03 00:13:53;;;;;;;;;;;13.70;99.90;;;;;;5049542;28;20120;-75
2023/10/03 00:16:20;;;;;;;6.97;2.33;;;13.50;99.90;;;;;;5049978;28;20010;-73
2023/10/03 00:18:46;;;;;;;8.23;2.60;;;13.50;99.90;;;;;;5049089;28;20035;-73
2023/10/03 00:21:12;;;;;;;;;;;13.50;99.90;;;;;;5050853;28;20115;-73
2023/10/03 00:23:37;;;;;;;6.88;2.58;;;13.50;99.90;;;;;;5050238;28;19908;-73
2023/10/03 00:26:04;;;;;;;;;;;13.60;99.90;;;;;;5050603;28;20029;-75
2023/10/03 00:28:33;;;;;;;7.32;2.80;;;13.60;99.90;;;;;;5050037;28;19962;-73
2023/10/03 00:30:59;;;;;;;7.57;2.80;;;13.60;99.90;;;;;;5050079;28;20040;-74
2023/10/03 00:33:26;;;;;;;;;;;13.60;99.90;;;;;;5049220;28;20029;-73
2023/10/03 00:35:52;;;;;;;5.45;2.10;;;13.60;99.90;;;;;;5048581;28;19951;-74
2023/10/03 00:38:18;;;;;;;11.90;2.67;;;13.60;99.90;;;;;;5049987;28;20055;-74
2023/10/03 00:40:58;;;;;;;;;;;13.60;99.90;;;;;;5048272;28;20397;-75
2023/10/03 00:43:24;;;;;;;10.52;2.08;;;13.60;99.90;;;;;;5048448;28;19924;-74
2023/10/03 00:45:51;;;;;;;6.72;1.80;;;13.70;99.90;;;;;;5049734;28;20041;-73
2023/10/03 00:48:18;;;;;;;4.63;1.92;;;13.70;99.90;;;;;;5048417;28;20028;-76
2023/10/03 00:50:44;;;;;;;6.70;1.92;;;13.60;99.90;;;;;;5048377;28;20071;-74
2023/10/03 00:53:10;;;;;;;;;;;13.50;99.90;;;;;;5050141;28;20110;-75
2023/10/03 00:55:38;;;;;;;9.93;2.75;;;13.50;99.90;;;;;;5049889;28;19912;-74
2023/10/03 00:58:23;;;;;;;9.68;2.60;;;13.50;99.90;;;;;;5049503;28;20036;-75
2023/10/03 01:00:49;;;;;;;10.75;4.10;;;13.40;99.90;;;;;;5048171;28;20032;-74
2023/10/03 01:03:32;;;;;;;11.55;2.95;;;13.30;99.90;;;;;;5049455;28;20037;-75
2023/10/03 01:06:07;;;;;;;7.43;2.45;;;13.40;99.90;;;;;;5049550;28;20393;-73
2023/10/03 01:08:36;;;;;;;9.15;2.22;;;13.30;99.90;;;;;;5049354;28;20036;-74
2023/10/03 01:11:04;;;;;;;4.78;2.22;;;13.30;99.90;;;;;;5047973;28;20017;-74
2023/10/03 01:13:30;;;;;;;7.03;2.17;;;13.30;99.90;;;;;;5047956;28;20032;-74
2023/10/03 01:15:56;;;;;;;;;;;13.40;99.90;;;;;;5048106;28;20082;-73
2023/10/03 01:18:22;;;;;;;6.53;2.45;;;13.30;99.90;;;;;;5047832;28;19912;-74
2023/10/03 01:20:55;;;;;;;7.68;2.28;;;13.30;99.90;;;;;;5049067;28;20477;-74
2023/10/03 01:23:31;;;;;;;10.05;2.25;;;13.40;99.90;;;;;;5049119;28;20025;-74
2023/10/03 01:25:56;;;;;;;9.35;2.90;;;13.30;99.90;;;;;;5045383;28;20033;-75
2023/10/03 01:28:22;;;;;;;14.45;3.20;;;13.30;99.90;;;;;;5047687;28;20033;-74
2023/10/03 01:30:48;;;;;;;10.00;2.75;;;13.30;99.90;;;;;;5047537;28;20493;-75
2023/10/03 01:33:13;;;;;;;9.73;2.50;;;13.20;99.90;;;;;;5047852;28;20114;-75
2023/10/03 01:35:39;;;;;;;5.20;2.05;;;13.20;99.90;;;;;;5047490;28;20028;-74
2023/10/03 01:38:05;;;;;;;9.75;2.78;;;13.10;99.90;;;;;;5047188;28;20071;-74
2023/10/03 01:40:31;;;;;;;;;;;13.00;99.90;;;;;;5049297;28;20021;-74
2023/10/03 01:42:57;;;;;;;7.28;2.05;;;13.10;99.90;;;;;;5048599;28;19949;-75
2023/10/03 01:45:25;;;;;;;8.40;2.70;;;13.10;99.90;;;;;;5047323;28;20025;-74
2023/10/03 01:47:51;;;;;;;9.07;2.88;;;13.10;99.90;;;;;;5048757;28;20615;-76
2023/10/03 01:50:21;;;;;;;12.38;2.88;;;13.00;99.90;;;;;;5047247;28;20033;-74
2023/10/03 01:52:48;;;;;;;6.80;2.35;;;13.10;99.90;;;;;;5048388;28;20017;-73
2023/10/03 01:55:17;;;;;;;12.60;2.70;;;13.10;99.90;;;;;;5041356;28;20292;-75
2023/10/03 01:57:44;;;;;;;7.80;2.55;;;13.10;99.90;;;;;;5047114;28;20041;-74
2023/10/03 02:00:24;;;;;;;6.05;2.10;;;13.10;99.90;;;;;;5047160;28;20029;-73
2023/10/03 02:02:56;;;;;;;5.88;2.10;;;13.00;99.90;;;;;;5047034;28;20029;-75
2023/10/03 02:05:24;;;;;;;6.22;1.83;;;13.00;99.90;;;;;;5048500;28;20700;-75
2023/10/03 02:07:52;;;;;;;4.13;1.85;;;12.90;99.90;;;;;;5047288;28;20026;-74
2023/10/03 02:10:19;;;;;;;11.07;2.53;;;12.90;99.90;;;;;;5048540;28;20028;-75
2023/10/03 02:12:51;;;;;;;8.07;2.83;;;12.90;99.90;;;;;;5048793;28;20040;-74
2023/10/03 02:15:22;;;;;;;6.45;2.38;;;13.00;99.90;;;;;;5047145;28;20342;-74
2023/10/03 02:17:55;;;;;;;9.32;2.50;;;13.00;99.90;;;;;;5046742;28;20060;-74
2023/10/03 02:20:25;;;;;;;7.45;2.88;;;13.00;99.90;;;;;;5048514;28;20098;-74
2023/10/03 02:22:55;;;;;;;7.75;2.97;;;12.90;99.90;;;;;;5046989;28;20036;-75
2023/10/03 02:25:30;;;;;;;10.00;3.03;;;12.90;99.90;;;;;;5048656;28;20017;-73
2023/10/03 02:27:57;;;;;;;8.65;2.90;;;12.90;99.90;;;;;;5048489;28;20116;-75
2023/10/03 02:30:25;;;;;;;7.10;2.72;;;12.80;99.90;;;;;;5046965;28;20065;-75
2023/10/03 02:32:55;;;;;;;11.52;3.40;;;12.80;99.90;;;;;;5046868;28;20025;-76
2023/10/03 02:35:22;;;;;;;6.28;2.78;;;12.80;99.90;;;;;;5048143;28;20402;-74
2023/10/03 02:37:49;;;;;;;9.93;3.10;;;12.90;99.90;;;;;;5046708;28;20032;-75
2023/10/03 02:40:22;;;;;;;6.63;2.28;;;12.90;99.90;;;;;;5047908;28;20021;-77
2023/10/03 02:42:49;;;;;;;8.93;3.10;;;12.80;99.90;;;;;;5047983;28;20033;-75
2023/10/03 02:45:17;;;;;;;9.95;3.30;;;12.90;99.90;;;;;;5048089;28;20029;-75
2023/10/03 02:47:43;;;;;;;11.48;3.10;;;12.90;99.90;;;;;;5046871;28;20554;-75
2023/10/03 02:50:12;;;;;;;6.28;2.40;;;12.90;99.90;;;;;;5046388;28;20037;-75
2023/10/03 02:52:39;;;;;;;8.80;3.13;;;12.90;99.90;;;;;;5047990;28;20032;-75
2023/10/03 02:55:08;;;;;;;9.43;2.25;;;12.90;99.90;;;;;;5046882;28;20052;-75
2023/10/03 02:57:38;;;;;;;9.45;3.05;;;12.80;99.90;;;;;;5047896;28;20068;-73
2023/10/03 03:00:11;;;;;;;10.27;2.50;;;12.80;99.90;;;;;;5047884;28;20093;-75
2023/10/03 03:02:41;;;;;;;6.43;2.20;;;12.90;99.90;;;;;;5047951;28;20140;-75
2023/10/03 03:05:15;;;;;;;8.82;3.40;;;12.80;99.90;;;;;;5051590;28;20104;-75
2023/10/03 03:07:48;;;;;;;10.80;3.05;;;12.80;99.90;;;;;;5051657;28;20115;-76
2023/10/03 03:10:16;;;;;;;14.00;3.15;;;12.90;99.90;;;;;;5051610;28;20024;-75
2023/10/03 03:12:45;;;;;;;5.65;2.15;;;13.00;99.90;;;;;;5050154;28;20036;-74
2023/10/03 03:15:12;;;;;;;7.38;2.70;;;12.90;99.90;;;;;;5050224;28;20021;-74
2023/10/03 03:17:40;;;;;;;8.98;2.10;;;12.90;99.90;;;;;;5049906;28;20593;-75
2023/10/03 03:20:17;;;;;;;7.88;2.33;;;12.90;99.90;;;;;;5052491;28;20497;-74
2023/10/03 03:22:52;;;;;;;7.47;2.40;;;12.80;99.90;;;;;;5051321;28;20096;-74
2023/10/03 03:25:28;;;;;;;10.50;2.75;;;12.80;99.90;;;;;;5050146;28;20029;-74
2023/10/03 03:27:56;;;;;;;8.70;2.70;;;12.80;99.90;;;;;;5051267;28;20383;-74
2023/10/03 03:32:57;;;;;;;7.65;2.63;;;12.80;99.90;;;;;;5051341;28;20033;-73
2023/10/03 03:35:26;;;;;;;8.88;2.95;;;12.70;99.90;;;;;;5050576;28;20049;-74
2023/10/03 03:37:55;;;;;;;9.27;3.45;;;12.70;99.90;;;;;;5050250;28;20033;-74
2023/10/03 03:40:33;;;;;;;6.78;2.38;;;12.70;99.90;;;;;;5049387;28;20033;-75
2023/10/03 03:43:00;;;;;;;11.95;3.17;;;12.70;99.90;;;;;;5048977;28;20094;-75
2023/10/03 03:45:26;;;;;;;11.88;2.80;;;12.70;99.90;;;;;;5049149;28;20032;-74
2023/10/03 03:47:54;;;;;;;6.50;2.17;;;12.70;99.90;;;;;;5049069;28;20494;-75
2023/10/03 03:50:21;;;;;;;5.47;2.60;;;12.60;99.90;;;;;;5049121;28;20060;-74
2023/10/03 03:52:48;;;;;;;5.03;2.00;;;12.60;99.90;;;;;;5049158;28;20489;-73
2023/10/03 03:55:15;;;;;;;9.48;2.55;;;12.60;99.90;;;;;;5049193;28;20033;-74
2023/10/03 03:57:40;;;;;;;7.72;2.50;;;12.60;99.90;;;;;;5049097;28;20541;-72
2023/10/03 04:00:12;;;;;;;;;;;12.70;99.90;;;;;;5049604;28;20066;-73
2023/10/03 04:02:38;;;;;;;9.93;2.75;;;12.60;99.90;;;;;;5050252;28;19905;-74
2023/10/03 04:05:07;;;;;;;9.35;3.05;;;12.60;99.90;;;;;;5050161;28;20102;-74
2023/10/03 04:07:34;;;;;;;7.78;2.72;;;12.70;99.90;;;;;;5050313;28;20029;-75
2023/10/03 04:10:00;;;;;;;6.97;2.42;;;12.70;99.90;;;;;;5049034;28;20017;-74
2023/10/03 04:12:26;;;;;;;;;;;12.70;99.90;;;;;;5049393;28;20497;-74
2023/10/03 04:14:52;;;;;;;7.93;2.45;;;12.60;99.90;;;;;;5048855;28;19908;-73
2023/10/03 04:17:18;;;;;;;10.20;2.50;;;12.60;99.90;;;;;;5048715;28;20064;-74
2023/10/03 04:19:45;;;;;;;;;;;12.50;99.90;;;;;;5049320;28;20021;-74
2023/10/03 04:22:11;;;;;;;9.15;2.60;;;12.50;99.90;;;;;;5048531;28;19904;-74
2023/10/03 04:24:37;;;;;;;;;;;12.50;99.90;;;;;;5050755;28;20470;-73
2023/10/03 04:27:03;;;;;;;9.93;3.33;;;12.50;99.90;;;;;;5048707;28;20003;-74
2023/10/03 04:29:29;;;;;;;7.70;2.60;;;12.60;99.90;;;;;;5050016;28;20544;-74
2023/10/03 04:31:54;;;;;;;;;;;12.50;99.90;;;;;;5050512;28;20033;-73
2023/10/03 04:34:20;;;;;;;9.93;2.58;;;12.60;99.90;;;;;;5049828;28;20415;-73
2023/10/03 04:36:47;;;;;;;;;;;12.50;99.90;;;;;;5050142;28;20033;-76
2023/10/03 04:39:13;;;;;;;7.40;2.45;;;12.50;99.90;;;;;;5049796;28;20058;-76
2023/10/03 04:41:43;;;;;;;9.25;2.58;;;12.50;99.90;;;;;;5049574;28;20040;-72
2023/10/03 04:44:14;;;;;;;6.10;2.35;;;12.50;99.90;;;;;;5048500;28;20078;-74
2023/10/03 04:46:40;;;;;;;9.68;3.10;;;12.50;99.90;;;;;;5049676;28;20773;-75
2023/10/03 04:49:07;;;;;;;7.15;2.35;;;12.50;99.90;;;;;;5048618;28;20025;-75
2023/10/03 04:51:33;;;;;;;7.22;2.40;;;12.50;99.90;;;;;;5049538;28;20021;-73
2023/10/03 04:53:58;;;;;;;;;;;12.40;99.90;;;;;;5050050;28;20339;-75
2023/10/03 04:56:24;;;;;;;6.03;2.15;;;12.40;99.90;;;;;;5048154;28;19917;-73
2023/10/03 04:58:50;;;;;;;8.15;3.28;;;12.40;99.90;;;;;;5047990;28;20036;-74
2023/10/03 05:01:15;;;;;;;10.73;3.08;;;12.40;99.90;;;;;;5048139;28;20067;-74
2023/10/03 05:03:41;;;;;;;;;;;12.50;99.90;;;;;;5048388;28;20308;-74
2023/10/03 05:06:06;;;;;;;12.18;3.53;;;12.50;99.90;;;;;;5047971;28;19941;-74
2023/10/03 05:08:32;;;;;;;12.60;3.45;;;12.50;99.90;;;;;;5048102;28;20029;-74
2023/10/03 05:11:00;;;;;;;;;;;12.40;99.90;;;;;;5049370;28;20500;-74
2023/10/03 05:13:25;;;;;;;14.55;4.20;;;12.40;99.90;;;;;;5049128;28;19999;-75
2023/10/03 05:15:54;;;;;;;;;;;12.40;99.90;;;;;;5048248;28;20116;-75
2023/10/03 05:18:20;;;;;;;9.10;2.90;;;12.50;99.90;;;;;;5047764;28;19923;-74
2023/10/03 05:20:45;;;;;;;;;;;12.50;99.90;;;;;;5048315;28;20017;-73
2023/10/03 05:23:14;;;;;;;8.20;3.47;;;12.60;99.90;;;;;;5047670;28;20361;-74
2023/10/03 05:25:42;;;;;;;10.70;3.22;;;12.60;99.90;;;;;;5048284;28;20063;-73
2023/10/03 05:28:11;;;;;;;10.70;3.17;;;12.70;99.90;;;;;;5048835;28;20103;-74
2023/10/03 05:30:38;;;;;;;9.38;2.97;;;12.70;99.90;;;;;;5048840;28;20048;-75
2023/10/03 05:33:07;;;;;;;14.15;3.30;;;12.80;99.90;;;;;;5034131;28;20025;-76
2023/10/03 05:35:33;;;;;;;9.23;3.05;;;12.90;99.90;;;;;;5027523;28;20048;-74
2023/10/03 05:37:59;;;;;;;;;;;13.00;99.90;;;;;;5028139;28;20118;-74
2023/10/03 05:40:25;;;;;;;5.70;2.42;;;13.10;99.90;;;;;;5028766;28;19909;-73
2023/10/03 05:42:51;;;;;;;9.77;3.72;;;13.20;99.90;;;;;;5027627;28;20025;-74
2023/10/03 05:45:19;;;;;;;10.07;2.70;;;13.30;99.90;;;;;;5028817;28;20052;-74
2023/10/03 05:47:47;;;;;;;10.13;4.05;;;13.50;99.90;;;;;;5028644;28;20026;-74
2023/10/03 05:50:14;;;;;;;11.70;3.08;;;13.60;99.90;;;;;;5028745;28;20117;-75
2023/10/03 05:52:40;;;;;;;8.95;3.20;;;13.70;99.90;;;;;;5028650;28;20108;-74
2023/10/03 05:55:07;;;;;;;14.27;3.22;;;13.80;99.90;;;;;;5044610;28;20504;-74
2023/10/03 05:57:33;;;;;;;11.05;4.72;;;13.90;99.90;;;;;;5048390;28;20037;-73
2023/10/03 06:00:00;;;;;;;12.02;3.85;;;14.10;99.90;;;;;;5047099;28;20025;-75
2023/10/03 06:02:26;;;;;;;10.98;3.70;;;14.30;99.90;;;;;;5047181;28;20413;-74
2023/10/03 06:04:53;;;;;;;8.65;2.83;;;14.40;99.90;;;;;;5047516;28;20032;-73
2023/10/03 06:07:19;;;;;;;12.15;2.78;;;14.70;99.90;;;;;;5048430;28;20025;-75
2023/10/03 06:09:44;;;;;;;7.13;2.65;;;14.80;99.90;;;;;;5048504;28;20025;-74
2023/10/03 06:12:10;;;;;;;17.23;3.75;;;15.10;99.90;;;;;;5048274;28;20082;-74
2023/10/03 06:14:38;;;;;;;9.68;3.03;;;15.40;99.90;;;;;;5046827;28;20112;-74
2023/10/03 06:17:04;;;;;;;11.05;3.40;;;15.70;99.90;;;;;;5046856;28;20061;-73
2023/10/03 06:19:30;;;;;;;10.77;3.17;;;16.00;99.90;;;;;;5048220;28;20162;-73
2023/10/03 06:21:56;;;;;;;9.55;3.05;;;16.10;99.90;;;;;;5047841;28;20498;-74
2023/10/03 06:24:25;;;;;;;13.88;3.08;;;16.30;99.90;;;;;;5047035;28;20032;-73
2023/10/03 06:26:50;;;;;;;8.32;3.13;;;16.60;99.90;;;;;;5048328;28;20021;-73
2023/10/03 06:29:16;;;;;;;6.22;2.58;;;16.80;99.90;;;;;;5048144;28;20036;-74
2023/10/03 06:31:43;;;;;;;9.15;2.42;;;17.00;99.90;;;;;;5048098;28;20104;-74
2023/10/03 06:34:09;;;;;;;10.15;2.92;;;17.20;99.90;;;;;;5046883;28;20500;-74
2023/10/03 06:36:35;;;;;;;9.02;3.30;;;17.50;99.90;;;;;;5046765;28;20025;-73
2023/10/03 06:39:04;;;;;;;9.50;2.63;;;17.90;99.90;;;;;;5050260;28;20112;-73
2023/10/03 06:41:30;;;;;;;12.02;2.60;;;18.40;99.90;;;;;;5052022;28;20017;-74
2023/10/03 06:43:55;;;;;;;8.77;2.85;;;18.90;99.90;;;;;;5051882;28;20040;-74
2023/10/03 06:46:21;;;;;;;7.95;2.35;;;19.60;99.90;;;;;;5050393;28;20025;-73
2023/10/03 06:48:47;;;;;;;7.60;2.30;;;20.10;97.20;;;;;;5052166;28;20040;-73
2023/10/03 06:51:12;;;;;;;10.55;2.28;;;20.70;94.90;;;;;;5051976;28;20074;-74
2023/10/03 06:53:41;;;;;;;8.27;2.40;;;21.20;92.00;;;;;;5050493;28;20069;-74
2023/10/03 06:56:07;;;;;;;6.90;2.30;;;21.60;88.70;;;;;;5051817;28;20028;-74
2023/10/03 06:58:33;;;;;;;5.88;2.25;;;21.80;84.50;;;;;;5048034;28;20064;-74
2023/10/03 07:00:59;;;;;;;15.10;3.20;;;21.90;83.20;;;;;;5046922;28;20056;-74
2023/10/03 07:03:25;;;;;;;12.18;3.58;;;21.90;81.60;;;;;;5040186;28;20025;-74
2023/10/03 07:05:51;;;;;;;9.65;2.90;;;21.80;75.70;;;;;;5038997;28;20481;-74
2023/10/03 07:08:16;;;;;;;12.90;3.20;;;21.80;75.60;;;;;;5042884;28;20021;-73
2023/10/03 07:10:42;;;;;;;10.60;2.75;;;22.00;75.80;;;;;;5041162;28;20421;-74
2023/10/03 07:13:09;;;;;;;8.77;2.70;;;22.10;73.40;;;;;;5041945;28;20481;-74
2023/10/03 07:15:35;;;;;;;11.68;2.65;;;21.90;72.30;;;;;;5041433;28;20030;-74
2023/10/03 07:18:03;;;;;;;8.13;2.35;;;21.90;72.60;;;;;;5034502;28;20049;-75
2023/10/03 07:20:29;;;;;;;9.18;3.33;;;21.80;72.30;;;;;;5030114;28;20064;-74
2023/10/03 07:22:55;;;;;;;10.18;3.20;;;21.40;71.40;;;;;;5029975;28;20045;-74
2023/10/03 07:25:21;;;;;;;12.88;3.47;;;21.30;72.30;;;;;;5031509;28;20026;-74
2023/10/03 07:27:48;;;;;;;10.57;3.33;;;21.40;70.40;;;;;;5031329;28;20052;-74
2023/10/03 07:30:16;;;;;;;18.83;3.30;;;21.10;70.70;;;;;;5031193;28;20472;-74
2023/10/03 07:32:42;;;;;;;7.68;2.75;;;20.90;72.50;;;;;;5031193;28;20051;-74
2023/10/03 07:35:11;;;;;;;12.45;3.55;;;21.00;72.90;;;;;;5031215;28;20029;-73
2023/10/03 07:37:38;;;;;;;9.25;3.13;;;21.00;72.70;;;;;;5031170;28;20025;-74
2023/10/03 07:40:06;;;;;;;14.40;3.10;;;20.90;71.80;;;;;;5037638;28;20124;-74
2023/10/03 07:42:32;;;;;;;7.47;2.78;;;20.80;71.40;;;;;;5050980;28;20025;-73
2023/10/03 07:44:58;;;;;;;9.95;3.53;;;20.70;71.70;;;;;;5051024;28;20029;-74
2023/10/03 07:47:23;;;;;;;13.70;3.63;;;20.50;73.00;;;;;;5050930;28;20036;-73
2023/10/03 07:49:49;;;;;;;12.18;3.85;;;20.60;72.70;;;;;;5049010;28;20489;-75
2023/10/03 07:52:18;;;;;;;10.90;3.50;;;20.60;73.80;;;;;;5049244;28;20086;-74
2023/10/03 07:54:54;;;;;;;9.15;3.17;;;20.60;75.00;;;;;;5049405;28;20028;-74
2023/10/03 07:57:23;;;;;;;9.50;3.35;;;20.70;75.50;;;;;;5050933;28;20037;-74
2023/10/03 07:59:50;;;;;;;11.32;2.97;;;20.80;74.50;;;;;;5049332;28;20399;-74
2023/10/03 08:02:16;;;;;;;12.27;3.80;;;20.90;74.10;;;;;;5041169;28;20025;-74
2023/10/03 08:04:43;;;;;;;18.77;3.75;;;21.10;74.20;;;;;;5039811;28;20025;-74
2023/10/03 08:07:14;;;;;;;13.57;3.45;;;21.30;72.50;;;;;;5041298;28;20029;-75
2023/10/03 08:09:46;;;;;;;16.17;3.30;;;21.40;70.90;;;;;;5044697;28;20052;-74
2023/10/03 08:12:12;;;;;;;19.20;3.35;;;21.40;69.90;;;;;;5040598;28;20502;-74
2023/10/03 08:14:39;;;;;;;17.05;3.97;;;21.50;71.00;;;;;;5034035;28;20022;-74
2023/10/03 08:17:05;;;;;;;14.13;2.78;;;21.70;72.00;;;;;;5030104;28;20053;-74
2023/10/03 08:19:30;;;;;;;8.95;3.15;;;22.10;71.40;;;;;;5030429;28;20025;-74
2023/10/03 08:21:58;;;;;;;17.88;4.07;;;22.70;70.00;;;;;;5030225;28;20754;-74
2023/10/03 08:24:24;;;;;;;11.80;3.83;;;23.40;67.60;;;;;;5028969;28;20105;-74
2023/10/03 08:26:58;;;;;;;9.48;3.15;;;24.20;65.50;;;;;;5030320;28;20032;-74
2023/10/03 08:29:25;;;;;;;7.93;3.20;;;25.00;62.90;;;;;;5030296;28;20033;-74
2023/10/03 08:31:58;;;;;;;14.20;5.00;;;25.70;60.40;;;;;;5030067;28;20056;-75
2023/10/03 08:34:24;;;;;;;13.77;3.58;;;26.30;58.30;;;;;;5037365;28;20402;-75
2023/10/03 08:36:54;;;;;;;7.90;3.10;;;26.80;55.80;;;;;;5039459;28;20043;-73
2023/10/03 08:39:23;;;;;;;13.85;4.55;;;27.00;54.60;;;;;;5040373;28;20032;-74
2023/10/03 08:42:17;;;;;;;12.38;3.13;;;27.40;54.30;;;;;;5039268;28;20028;-74
2023/10/03 08:44:51;;;;;;;15.48;4.30;;;27.90;52.00;;;;;;5027529;28;20041;-75
2023/10/03 08:47:23;;;;;;;10.60;4.05;;;28.20;50.80;;;;;;5035243;28;20543;-75
2023/10/03 08:49:56;;;;;;;14.57;4.68;;;28.60;50.20;;;;;;5034662;28;20436;-74
2023/10/03 08:52:39;;;;;;;10.52;4.30;;;28.80;48.10;;;;;;5036992;28;20029;-75
2023/10/03 08:55:08;;;;;;;15.48;3.95;;;28.70;48.10;;;;;;5044510;28;20489;-74
2023/10/03 08:57:35;;;;;;;10.25;4.30;;;29.00;48.30;;;;;;5045199;28;20069;-74
2023/10/03 09:00:06;;;;;;;10.85;3.75;;;29.30;47.50;;;;;;5029506;28;20462;-75
2023/10/03 09:02:45;;;;;;;9.27;4.05;;;29.50;46.60;;;;;;5029244;28;20044;-73
2023/10/03 09:05:19;;;;;;;12.02;4.43;;;29.80;45.90;;;;;;5029588;28;20028;-74
2023/10/03 09:07:49;;;;;;;11.52;4.38;;;29.90;45.70;;;;;;5047932;28;20033;-74
2023/10/03 09:10:25;;;;;;;16.15;3.83;;;30.20;45.00;;;;;;5047930;28;20025;-76
2023/10/03 09:12:52;;;;;;;10.75;4.20;;;30.40;44.70;;;;;;5046182;28;20124;-73
2023/10/03 09:15:22;;;;;;;10.07;4.10;;;30.50;42.80;;;;;;5049152;28;20398;-74
2023/10/03 09:17:50;;;;;;;15.52;4.13;;;29.90;43.50;;;;;;5049089;28;20056;-75
2023/10/03 09:20:31;;;;;;;7.82;3.28;;;30.20;43.70;;;;;;5047645;28;20022;-73
2023/10/03 09:23:05;;;;;;;11.88;3.47;;;30.50;42.70;;;;;;5049029;28;20064;-73
2023/10/03 09:25:32;;;;;;;19.75;4.97;;;30.20;43.30;;;;;;5047674;28;20025;-73
2023/10/03 09:28:08;;;;;;;11.02;3.90;;;30.30;42.30;;;;;;5047707;28;20025;-75
2023/10/03 09:30:37;;;;;;;13.73;4.55;;;30.20;43.00;;;;;;5047629;28;20035;-74
2023/10/03 09:33:08;;;;;;;15.35;4.15;;;30.30;42.80;;;;;;5040580;28;20497;-74
2023/10/03 09:35:35;;;;;;;12.18;4.45;;;30.60;42.40;;;;;;5028871;28;20029;-75
2023/10/03 09:38:06;;;;;;;12.43;5.35;;;30.90;41.90;;;;;;5027234;28;20045;-75
2023/10/03 09:40:50;;;;;;;12.27;4.18;;;30.60;41.00;;;;;;5029005;28;20021;-76
2023/10/03 09:43:27;;;;;;;11.77;3.83;;;30.00;42.50;;;;;;5028834;28;20674;-75
2023/10/03 09:45:56;;;;;;;19.33;3.95;;;30.30;42.70;;;;;;5027798;28;20140;-74
2023/10/03 09:48:24;;;;;;;10.63;4.25;;;30.70;41.90;;;;;;5028691;28;20044;-75
2023/10/03 09:51:05;;;;;;;8.77;3.85;;;31.20;41.90;;;;;;5027314;28;20658;-74
2023/10/03 09:53:32;;;;;;;13.52;4.40;;;31.20;41.40;;;;;;5027327;28;20029;-75
2023/10/03 09:56:00;;;;;;;11.68;3.88;;;31.10;40.80;;;;;;5028612;28;20022;-74
2023/10/03 09:58:31;;;;;;;9.10;4.13;;;31.10;40.40;;;;;;5028670;28;20033;-76
2023/10/03 10:00:57;;;;;;;11.52;4.05;;;31.00;40.80;;;;;;5028412;28;20025;-74
2023/10/03 10:03:37;;;;;;;15.45;4.53;;;31.20;41.20;;;;;;5028719;28;20061;-75
2023/10/03 10:06:12;;;;;;;15.80;4.68;;;30.80;40.70;;;;;;5028546;28;20018;-75
2023/10/03 10:09:00;;;;;;;8.60;3.80;;;30.10;41.70;;;;;;5027582;28;20036;-75
2023/10/03 10:11:30;;;;;;;11.00;4.05;;;29.30;43.30;;;;;;5028302;28;20024;-74
2023/10/03 10:14:16;;;;;;;10.32;3.80;;;28.50;44.80;;;;;;5025551;28;20083;-75
2023/10/03 10:17:04;;;;;;;13.00;3.90;;;27.70;45.10;;;;;;5025419;28;20529;-75
2023/10/03 10:20:07;;;;;;;9.00;3.35;;;27.00;46.70;;;;;;5026098;28;20084;-74
2023/10/03 10:25:43;;;;;;;23.88;4.40;;;25.90;48.60;;;;;;5028261;28;20060;-75
2023/10/03 10:28:11;;;;;;;16.30;4.47;;;25.40;50.10;;;;;;5028459;28;20387;-74
2023/10/03 10:30:44;;;;;;;12.25;4.57;;;25.20;49.60;;;;;;5028298;28;20030;-74
2023/10/03 10:33:20;;;;;;;7.35;2.78;;;24.80;51.20;;;;;;5026924;28;20034;-74
2023/10/03 10:35:54;;;;;;;;;;;24.40;52.60;;;;;;5027500;28;20033;-76
2023/10/03 10:38:40;;;;;;;16.15;3.08;;;24.20;52.70;;;;;;5028075;28;19917;-75
2023/10/03 10:41:17;;;;;;;10.63;3.08;;;24.10;53.50;;;;;;5029634;28;20562;-75
2023/10/03 10:44:14;;;;;;;14.60;4.45;;;24.10;53.80;;;;;;5026856;28;20701;-74
2023/10/03 10:46:46;;;;;;;12.75;3.80;;;24.00;54.00;;;;;;5028131;28;20517;-74
2023/10/03 10:49:30;;;;;;;17.35;3.70;;;24.00;54.60;;;;;;5028190;28;20343;-74
2023/10/03 10:52:06;;;;;;;6.13;2.92;;;24.00;54.20;;;;;;5028114;28;20034;-75
2023/10/03 10:54:33;;;;;;;;;;;23.90;53.80;;;;;;5028640;28;20091;-74
2023/10/03 10:57:04;;;;;;;16.02;3.40;;;23.80;54.20;;;;;;5026576;28;20267;-74
2023/10/03 10:59:40;;;;;;;9.32;2.88;;;23.70;55.20;;;;;;5027839;28;20029;-74
2023/10/03 11:02:26;;;;;;;10.02;2.60;;;23.70;55.70;;;;;;5027937;28;20032;-74
2023/10/03 11:04:56;;;;;;;10.48;3.05;;;23.70;56.00;;;;;;5027900;28;20025;-74
2023/10/03 11:07:23;;;;;;;10.68;2.63;;;23.70;55.80;;;;;;5027280;28;20447;-74
2023/10/03 11:09:52;;;;;;;13.00;2.45;;;23.80;56.70;;;;;;5027563;28;20029;-74
2023/10/03 11:12:25;;;;;;;9.55;2.92;;;23.90;55.70;;;;;;5025623;28;20022;-75
2023/10/03 11:14:52;;;;;;;8.40;2.35;;;23.90;55.60;;;;;;5026664;28;20026;-75
2023/10/03 11:17:19;;;;;;;8.13;2.97;;;23.90;54.10;;;;;;5037969;28;20056;-74
2023/10/03 11:19:46;;;;;;;15.07;2.45;;;23.90;54.80;;;;;;5026916;28;20548;-75
2023/10/03 11:22:12;;;;;;;11.18;2.60;;;23.90;55.30;;;;;;5027427;28;20033;-74
2023/10/03 11:24:40;;;;;;;8.18;2.58;;;23.90;54.20;;;;;;5048331;28;20062;-74
2023/10/03 11:27:06;;;;;;;8.02;2.80;;;23.80;55.30;;;;;;5049243;28;20032;-75
2023/10/03 11:29:48;;;;;;;11.85;2.88;;;23.80;56.00;;;;;;5051109;28;20021;-74
2023/10/03 11:32:29;;;;;;;10.50;2.58;;;23.80;55.60;;;;;;5050971;28;20025;-74
2023/10/03 11:34:57;;;;;;;8.10;2.78;;;23.90;55.40;;;;;;5047501;28;20348;-75
2023/10/03 11:37:39;;;;;;;9.43;2.55;;;23.90;55.30;;;;;;5051073;28;20497;-75
2023/10/03 11:40:08;;;;;;;7.63;3.08;;;23.90;55.20;;;;;;5051047;28;20036;-75
2023/10/03 11:42:42;;;;;;;12.32;2.28;;;23.90;54.70;;;;;;5049855;28;20501;-74
2023/10/03 11:45:09;;;;;;;17.33;3.33;;;23.90;55.70;;;;;;5051109;28;20494;-74
2023/10/03 11:47:35;;;;;;;8.55;3.50;;;24.00;55.20;;;;;;5050951;28;20544;-74
2023/10/03 11:50:00;;;;;;;6.80;2.58;;;24.10;55.00;;;;;;5050846;28;20553;-74
2023/10/03 11:52:29;;;;;;;11.82;3.53;;;24.00;55.10;;;;;;5050801;28;20096;-74
2023/10/03 11:54:54;;;;;;;10.48;3.53;;;24.10;55.10;;;;;;5049476;28;20036;-75
2023/10/03 11:57:20;;;;;;;20.50;7.68;;;24.10;55.40;;;;;;5050800;28;20437;-74
2023/10/03 11:59:46;;;;;;;11.75;3.50;;;24.00;56.00;;;;;;5050770;28;20064;-74
2023/10/03 12:02:11;;;;;;;5.25;2.20;;;24.20;54.90;;;;;;5044065;28;20086;-75
2023/10/03 12:04:39;;;;;;;10.15;2.13;;;24.10;55.60;;;;;;5049413;28;20114;-75
2023/10/03 12:07:05;;;;;;;7.38;2.15;;;24.30;55.70;;;;;;5050583;28;20029;-75
2023/10/03 12:09:31;;;;;;;8.05;2.38;;;24.20;55.00;;;;;;5050495;28;20438;-74
2023/10/03 12:11:57;;;;;;;6.38;2.47;;;24.20;55.20;;;;;;5044363;28;20032;-74
2023/10/03 12:14:23;;;;;;;6.75;2.60;;;24.20;55.10;;;;;;5030135;28;20022;-75
2023/10/03 12:16:51;;;;;;;11.50;2.97;;;24.30;54.80;;;;;;5029944;28;20529;-74
2023/10/03 12:19:21;;;;;;;10.88;2.85;;;24.30;55.10;;;;;;5030211;28;20037;-75
2023/10/03 12:21:47;;;;;;;6.63;2.72;;;24.30;54.80;;;;;;5045270;28;20029;-75
2023/10/03 12:24:12;;;;;;;9.57;3.05;;;24.30;55.70;;;;;;5029479;28;20042;-75
2023/10/03 12:26:38;;;;;;;11.60;2.83;;;24.40;55.40;;;;;;5029327;28;20022;-75
2023/10/03 12:29:04;;;;;;;6.72;2.20;;;24.50;55.10;;;;;;5030556;28;20104;-74
2023/10/03 12:31:32;;;;;;;10.85;2.63;;;24.60;54.50;;;;;;5028940;28;20029;-74
2023/10/03 12:34:01;;;;;;;6.35;2.05;;;24.60;54.30;;;;;;5030075;28;20107;-74
2023/10/03 12:36:32;;;;;;;7.80;2.33;;;24.60;54.10;;;;;;5028317;28;20029;-75
2023/10/03 12:38:59;;;;;;;8.88;2.80;;;24.60;54.20;;;;;;5028405;28;20037;-75
2023/10/03 12:41:29;;;;;;;13.75;2.33;;;24.70;54.50;;;;;;5028454;28;20059;-75
2023/10/03 12:43:55;;;;;;;9.98;3.30;;;24.70;55.00;;;;;;5027165;28;20055;-76
2023/10/03 12:46:20;;;;;;;7.68;2.63;;;24.80;53.90;;;;;;5028042;28;20494;-75
2023/10/03 12:48:46;;;;;;;13.88;2.63;;;24.80;54.20;;;;;;5027777;28;20034;-75
2023/10/03 12:51:13;;;;;;;14.68;2.78;;;24.90;53.50;;;;;;5028187;28;20032;-75
2023/10/03 12:53:39;;;;;;;6.47;2.35;;;24.90;53.60;;;;;;5045135;28;20040;-75
2023/10/03 12:56:08;;;;;;;6.78;2.22;;;24.80;54.60;;;;;;5028433;28;20021;-75
2023/10/03 12:58:35;;;;;;;5.95;2.58;;;24.90;53.90;;;;;;5029773;28;20533;-75
2023/10/03 13:01:01;;;;;;;9.40;1.95;;;24.90;53.00;;;;;;5029411;28;20558;-74
2023/10/03 13:03:28;;;;;;;4.25;1.85;;;24.90;54.10;;;;;;5029570;28;20029;-75